METAR / TAF

Die METAR- und TAF-Liste ist aus technischen Gründen (Verfügbarkeit, Update-Zyklen) nicht für ein Meteo-Briefing gedacht. Benutzen Sie stattdessen skybriefing der Skyguide  oder das TAMSI (MeteoSchweiz-eigene Meteo Selfbriefing-Plattform für Firmen aus der Aviatik; Anfragen über das

Kontaktformular

METAR Schweiz

METAR     LSZH 260050Z 30007KT 260V330 9999 FEW028 BKN030 08/04
               Q1012 TEMPO SHRA=
METAR     LSZH 260120Z 28009KT 260V320 9999 -SHRA FEW030 SCT035
               BKN040 08/04 Q1012 TEMPO SHRA=
METAR     LSGG 260050Z AUTO 22007KT 9999 -RA BKN012 06/04 Q1015
               NOSIG=
METAR     LSGG 260120Z AUTO 21006KT 9999 -RA FEW033 BKN041 06/04
               Q1015 NOSIG=
METAR CCA LFSB 260130Z AUTO 20004KT 140V270 9999 FEW054 OVC080
               08/04 Q1013 TEMPO 4000 RA RMK BECMG NSC=
METAR     LSZB 260050Z AUTO 28008KT 240V330 9999 -RA FEW016 SCT022
               BKN027 07/05 Q1013=
METAR     LSZB 260120Z AUTO 26006KT 210V310 9999 -RA FEW025 OVC050
               07/04 Q1013=
METAR     LSZA 260050Z AUTO VRB03KT 9999 -RA FEW041TCU BKN046
               BKN080 12/11 Q1014=
METAR     LSZA 260120Z AUTO VRB02KT 9999 FEW045TCU OVC050 BKN070
               12/11 Q1013=
METAR     LSZG 260050Z AUTO 24009KT 9999 -RA FEW047 SCT060 BKN080
               07/04 Q1013 REDZ=
METAR     LSZG 260120Z AUTO 22010KT 9999 -RA BKN/// 07/06 Q1013=
METAR     LSZR 260050Z AUTO 29011KT CAVOK 10/06 Q1011=
METAR     LSZR 260120Z AUTO 28010KT 9999 BKN026 10/07 Q1011=
METAR     LSGS 260050Z AUTO 26020KT 9999 NCD 09/04 Q1010=
METAR     LSGS 260120Z AUTO 25020KT 9999 FEW070 //////TCU 08/03
               Q1010=
METAR     LSGC 260050Z AUTO 24002KT 5000 -SN BKN/// 00/00 Q1012=
METAR     LSGC 260120Z AUTO 24002KT 9999 -SN BKN/// 00/00 Q1013=
METAR     LSZC 260050Z AUTO 34007KT 320V030 7000 -RA SCT025 BKN030
               //////TCU 09/06 Q1012=
METAR     LSZC 260120Z AUTO 13003KT 060V160 7000 -RA FEW020
               OVC031TCU 09/07 Q1012=
METAR RRB LSZL 260120Z AUTO VRB04KT 9999NDV -RA BKN048 11/11 Q1013
               RERA RMK=
METAR RRA LSZL 260050Z AUTO VRB02KT 9999NDV SHRA BKN048 BKN055
               11/11 Q1013 RMK=
METAR     LSZS 260050Z AUTO VRB03KT 9999 -DZ FEW050CB 05/03 Q1015=
METAR     LSZS 260120Z AUTO VRB03KT 9999 -RA BKN047CB 05/03 Q1015=
METAR RRB LSMA 260120Z AUTO 07006KT 030V120 9999NDV SHRA FEW017
               SCT024 OVC028 08/06 Q1012 RMK=
METAR RRA LSMA 260050Z AUTO VRB02KT 9999NDV -SHRA BKN022 OVC026
               09/06 Q1013 RMK=
METAR RRB LSMD 260120Z AUTO 28004KT 240V320 9999NDV SCT042 BKN052
               09/04 Q1012 RMK=
METAR RRA LSMD 260050Z AUTO 28007KT 250V310 9999NDV SCT027 08/03
               Q1012 RMK=
METAR RRA LSME 260050Z AUTO 33003KT 300V360 9999NDV -SHRA OVC030
               09/05 Q1013 RMK=
METAR RRA LSME 260120Z AUTO 28002KT 7000NDV SHRA FEW022 OVC035
               09/06 Q1013 RMK=
METAR RRB LSMM 260120Z AUTO 25005KT 220V320 7000NDV RA SCT023
               BKN030 OVC050 09/07 Q1011 RMK=
METAR RRA LSMM 260050Z AUTO VRB03KT 9999NDV -RA SCT024 OVC029 10/06
               Q1012 RMK=
METAR RRB LSMP 260120Z AUTO 22006KT 9000NDV RA BKN025 OVC032 06/05
               Q1014 RMK=
METAR RRA LSMP 260050Z AUTO 21005KT 6000NDV RA FEW029 OVC035 06/05
               Q1014 RMK=
Aktualisiert am Freitag, 26. April 2019, 03:41 Uhr

TAF Schweiz

TAF     LSZH 252325Z 2600/2706 26006KT 9999 SCT030 TX11/2615Z
             TN06/2605Z TN05/2705Z TEMPO 2602/2614 28012KT 4500 RA
             BKN030 PROB40 2614/2621 28012G25KT SHRA FEW030TCU
             PROB30 TEMPO 2621/2706 SHRA=
TAF     LSGG 252325Z 2600/2706 25010KT 9999 RA FEW030 SCT040 BKN090
             TX14/2615Z TN05/2605Z  TN06/2705Z BECMG 2602/2604 NSW
             TEMPO 2612/2703 SHRA SCT050TCU=
TAF     LFSB 252300Z 2600/2624 26010G20KT CAVOK TEMPO 2600/2603 -RA
             PROB40 TEMPO 2600/2603 4000 RA BKN040 SCT050TCU BECMG
             2601/2604 16005KT PROB30 TEMPO 2612/2620 SHRA
             FEW030CB=
TAF     LSZL 251725Z 2518/2603 VRB03KT 9999 -SHRA FEW035 SCT045
             BKN055 TEMPO 2518/2603 4500 SHRA SCT030TCU PROB30
             2518/2524 TSRA SCT030CB=
TAF RRA LSMA 251625Z 2517/2623 21015G25KT CAVOK BECMG 2519/2521
             VRB05KT BECMG 2522/2602 9999 BKN050 TEMPO 2602/2612
             4500 RA TEMPO 2612/2623 SHRA FEW030TCU=
TAF     LSMD 251625Z 2517/2623 16015G25KT CAVOK BECMG 2519/2521
             24005KT BECMG 2600/2603 9999 BKN050 TEMPO 2603/2610
             4500 RA TEMPO 2610/2623 SHRA FEW030TCU=
TAF     LSME 251625Z 2517/2623 15005KT CAVOK TEMPO 2517/2520
             15015G25KT BECMG 2600/2603 9999 BKN050 TEMPO
             2603/2612 4500 RA TEMPO 2612/2623 SHRA FEW030TCU=
TAF RRA LSMM 251625Z 2517/2623 10028G42KT 9999 FEW110 TEMPO
             2517/2524 CAVOK BECMG 2519/2522 VRB05KT BECMG
             2522/2602 9999 BKN050 TEMPO 2602/2612 4500 RA TEMPO
             2612/2623 SHRA FEW030TCU=
TAF     LSMP 251625Z 2517/2623 21009KT 9999 FEW060 BKN100 TEMPO
             2522/2604 4500 RA TEMPO 2614/2618 30010KT SHRA
             SCT050TCU=
Aktualisiert am Freitag, 26. April 2019, 03:03 Uhr